Campo Largo, Argentina
Current Conditions -  °F | °C
As of 6:00 PM on Saturday 22 Nov 2014 (Local Time) from SARE Reporting Station
Few Clouds Few Clouds  
Wind Chill: 82°   Ceiling: Unl
Heat Index: 82°   Visibility: 6mi
Dew Point: 59°   Wind: 8mph
Humidity: 45%   Direction: 140°SE
Pressure: 29.85"   Gusts: NA
Location:  26.8°S, 60.83°W
Report Text: SARE 222100Z 14007KT 9999 FEW020 28/15 Q1011
Loading
Personal Weather Stations






























Interactive Weather Map New forecast layout! Learn more

10-Day Weather Forecast

Advertisements
Track Severe Weather on mobile